sensor_id;sensor_type;location;lat;lon;timestamp;pressure;altitude;pressure_sealevel;temperature;humidity
62025;BME280;47978;49.118;12.146;2024-03-02T00:01:19;96446.97;;;5.16;100.00
62025;BME280;47978;49.118;12.146;2024-03-02T00:05:22;96443.63;;;5.38;100.00
62025;BME280;47978;49.118;12.146;2024-03-02T00:09:25;96442.44;;;5.26;100.00
62025;BME280;47978;49.118;12.146;2024-03-02T00:13:27;96440.88;;;5.38;100.00
62025;BME280;47978;49.118;12.146;2024-03-02T00:17:29;96439.03;;;5.15;100.00
62025;BME280;47978;49.118;12.146;2024-03-02T00:21:31;96443.78;;;5.09;100.00
62025;BME280;47978;49.118;12.146;2024-03-02T00:25:41;96434.09;;;4.98;100.00
62025;BME280;47978;49.118;12.146;2024-03-02T00:29:43;96426.38;;;5.19;100.00
62025;BME280;47978;49.118;12.146;2024-03-02T00:33:45;96437.94;;;5.16;100.00
62025;BME280;47978;49.118;12.146;2024-03-02T00:37:48;96440.47;;;5.12;100.00
62025;BME280;47978;49.118;12.146;2024-03-02T00:41:51;96440.81;;;5.25;100.00
62025;BME280;47978;49.118;12.146;2024-03-02T00:45:52;96435.19;;;5.16;100.00
62025;BME280;47978;49.118;12.146;2024-03-02T00:49:54;96434.28;;;5.21;100.00
62025;BME280;47978;49.118;12.146;2024-03-02T00:53:58;96438.22;;;5.14;100.00
62025;BME280;47978;49.118;12.146;2024-03-02T00:58:01;96434.28;;;5.21;100.00
62025;BME280;47978;49.118;12.146;2024-03-02T01:02:03;96437.41;;;5.14;100.00
62025;BME280;47978;49.118;12.146;2024-03-02T01:06:05;96435.28;;;5.11;100.00
62025;BME280;47978;49.118;12.146;2024-03-02T01:10:07;96429.41;;;5.17;100.00
62025;BME280;47978;49.118;12.146;2024-03-02T01:14:10;96436.16;;;5.06;100.00
62025;BME280;47978;49.118;12.146;2024-03-02T01:18:11;96420.69;;;5.15;100.00
62025;BME280;47978;49.118;12.146;2024-03-02T01:22:13;96428.97;;;5.10;100.00
62025;BME280;47978;49.118;12.146;2024-03-02T01:26:14;96429.78;;;5.11;100.00
62025;BME280;47978;49.118;12.146;2024-03-02T01:30:17;96433.56;;;5.15;100.00
62025;BME280;47978;49.118;12.146;2024-03-02T01:34:19;96419.44;;;5.08;100.00
62025;BME280;47978;49.118;12.146;2024-03-02T01:38:20;96423.50;;;5.10;100.00
62025;BME280;47978;49.118;12.146;2024-03-02T01:42:22;96427.34;;;5.09;100.00
62025;BME280;47978;49.118;12.146;2024-03-02T01:46:25;96426.25;;;5.10;100.00
62025;BME280;47978;49.118;12.146;2024-03-02T01:50:27;96423.19;;;5.12;100.00
62025;BME280;47978;49.118;12.146;2024-03-02T01:54:29;96427.25;;;5.14;100.00
62025;BME280;47978;49.118;12.146;2024-03-02T01:58:30;96428.97;;;5.10;100.00
62025;BME280;47978;49.118;12.146;2024-03-02T02:02:33;96423.28;;;5.07;100.00
62025;BME280;47978;49.118;12.146;2024-03-02T02:06:35;96415.50;;;5.14;100.00
62025;BME280;47978;49.118;12.146;2024-03-02T02:10:37;96421.56;;;5.11;100.00
62025;BME280;47978;49.118;12.146;2024-03-02T02:14:38;96421.84;;;5.28;100.00
62025;BME280;47978;49.118;12.146;2024-03-02T02:18:41;96406.25;;;5.10;100.00
62025;BME280;47978;49.118;12.146;2024-03-02T02:22:53;96411.56;;;5.20;100.00
62025;BME280;47978;49.118;12.146;2024-03-02T02:26:55;96406.69;;;5.17;100.00
62025;BME280;47978;49.118;12.146;2024-03-02T02:30:56;96412.22;;;5.12;100.00
62025;BME280;47978;49.118;12.146;2024-03-02T02:34:58;96409.50;;;5.12;100.00
62025;BME280;47978;49.118;12.146;2024-03-02T02:39:02;96409.09;;;5.37;100.00
62025;BME280;47978;49.118;12.146;2024-03-02T02:43:05;96413.59;;;5.47;100.00
62025;BME280;47978;49.118;12.146;2024-03-02T02:47:06;96403.59;;;5.37;100.00
62025;BME280;47978;49.118;12.146;2024-03-02T02:51:08;96405.31;;;5.33;100.00
62025;BME280;47978;49.118;12.146;2024-03-02T02:55:12;96405.53;;;5.37;100.00
62025;BME280;47978;49.118;12.146;2024-03-02T02:59:14;96403.31;;;5.39;100.00
62025;BME280;47978;49.118;12.146;2024-03-02T03:03:16;96399.56;;;5.49;100.00
62025;BME280;47978;49.118;12.146;2024-03-02T03:07:17;96406.25;;;5.43;100.00
62025;BME280;47978;49.118;12.146;2024-03-02T03:11:20;96404.09;;;5.58;100.00
62025;BME280;47978;49.118;12.146;2024-03-02T03:15:22;96406.19;;;5.48;100.00
62025;BME280;47978;49.118;12.146;2024-03-02T03:19:24;96401.81;;;5.47;100.00
62025;BME280;47978;49.118;12.146;2024-03-02T03:23:25;96405.13;;;5.30;100.00
62025;BME280;47978;49.118;12.146;2024-03-02T03:27:28;96404.72;;;5.36;100.00
62025;BME280;47978;49.118;12.146;2024-03-02T03:31:30;96405.31;;;5.33;100.00
62025;BME280;47978;49.118;12.146;2024-03-02T03:35:31;96406.34;;;5.37;100.00
62025;BME280;47978;49.118;12.146;2024-03-02T03:39:33;96410.28;;;5.31;100.00
62025;BME280;47978;49.118;12.146;2024-03-02T03:43:36;96403.84;;;5.41;100.00
62025;BME280;47978;49.118;12.146;2024-03-02T03:47:38;96406.44;;;5.32;100.00
62025;BME280;47978;49.118;12.146;2024-03-02T03:51:40;96404.44;;;5.38;100.00
62025;BME280;47978;49.118;12.146;2024-03-02T03:55:41;96397.84;;;5.39;100.00
62025;BME280;47978;49.118;12.146;2024-03-02T03:59:44;96407.78;;;5.49;100.00
62025;BME280;47978;49.118;12.146;2024-03-02T04:03:46;96404.66;;;5.41;100.00
62025;BME280;47978;49.118;12.146;2024-03-02T04:07:47;96411.34;;;5.49;100.00
62025;BME280;47978;49.118;12.146;2024-03-02T04:11:49;96418.69;;;5.54;100.00
62025;BME280;47978;49.118;12.146;2024-03-02T04:15:52;96426.66;;;5.36;100.00
62025;BME280;47978;49.118;12.146;2024-03-02T04:19:54;96423.84;;;5.41;100.00
62025;BME280;47978;49.118;12.146;2024-03-02T04:23:55;96426.50;;;5.60;100.00
62025;BME280;47978;49.118;12.146;2024-03-02T04:27:57;96427.97;;;5.72;100.00
62025;BME280;47978;49.118;12.146;2024-03-02T04:32:00;96427.16;;;5.71;100.00
62025;BME280;47978;49.118;12.146;2024-03-02T04:36:02;96426.34;;;5.71;100.00
62025;BME280;47978;49.118;12.146;2024-03-02T04:40:04;96432.88;;;5.89;100.00
62025;BME280;47978;49.118;12.146;2024-03-02T04:44:06;96441.06;;;5.94;100.00
62025;BME280;47978;49.118;12.146;2024-03-02T04:48:09;96432.81;;;5.94;100.00
62025;BME280;47978;49.118;12.146;2024-03-02T04:52:11;96441.34;;;5.92;100.00
62025;BME280;47978;49.118;12.146;2024-03-02T04:56:12;96447.63;;;5.93;100.00
62025;BME280;47978;49.118;12.146;2024-03-02T05:00:14;96448.78;;;6.05;100.00
62025;BME280;47978;49.118;12.146;2024-03-02T05:04:17;96443.19;;;5.97;100.00
62025;BME280;47978;49.118;12.146;2024-03-02T05:08:19;96449.50;;;5.97;100.00
62025;BME280;47978;49.118;12.146;2024-03-02T05:12:20;96453.47;;;6.05;100.00
62025;BME280;47978;49.118;12.146;2024-03-02T05:16:22;96459.28;;;6.03;100.00
62025;BME280;47978;49.118;12.146;2024-03-02T05:20:25;96456.75;;;6.07;100.00
62025;BME280;47978;49.118;12.146;2024-03-02T05:24:27;96460.69;;;6.15;100.00
62025;BME280;47978;49.118;12.146;2024-03-02T05:28:28;96466.06;;;6.06;100.00
62025;BME280;47978;49.118;12.146;2024-03-02T05:32:30;96462.34;;;6.16;100.00
62025;BME280;47978;49.118;12.146;2024-03-02T05:36:33;96462.59;;;6.00;100.00
62025;BME280;47978;49.118;12.146;2024-03-02T05:40:35;96467.06;;;5.96;100.00
62025;BME280;47978;49.118;12.146;2024-03-02T05:44:36;96470.63;;;5.97;100.00
62025;BME280;47978;49.118;12.146;2024-03-02T05:48:38;96474.63;;;6.04;100.00
62025;BME280;47978;49.118;12.146;2024-03-02T05:52:41;96476.97;;;6.11;100.00
62025;BME280;47978;49.118;12.146;2024-03-02T05:56:43;96484.56;;;6.00;100.00
62025;BME280;47978;49.118;12.146;2024-03-02T06:00:44;96484.06;;;5.79;100.00
62025;BME280;47978;49.118;12.146;2024-03-02T06:04:46;96477.41;;;6.18;100.00
62025;BME280;47978;49.118;12.146;2024-03-02T06:08:49;96484.69;;;6.23;100.00
62025;BME280;47978;49.118;12.146;2024-03-02T06:12:50;96479.22;;;6.09;100.00
62025;BME280;47978;49.118;12.146;2024-03-02T06:16:52;96483.72;;;6.33;100.00
62025;BME280;47978;49.118;12.146;2024-03-02T06:20:54;96491.75;;;6.29;100.00
62025;BME280;47978;49.118;12.146;2024-03-02T06:24:57;96487.97;;;6.25;100.00
62025;BME280;47978;49.118;12.146;2024-03-02T06:28:58;96487.25;;;5.86;100.00
62025;BME280;47978;49.118;12.146;2024-03-02T06:33:00;96487.16;;;5.92;100.00
62025;BME280;47978;49.118;12.146;2024-03-02T06:37:02;96486.59;;;5.76;100.00
62025;BME280;47978;49.118;12.146;2024-03-02T06:41:05;96490.97;;;5.96;100.00
62025;BME280;47978;49.118;12.146;2024-03-02T06:45:07;96494.53;;;5.96;100.00
62025;BME280;47978;49.118;12.146;2024-03-02T06:49:08;96480.09;;;6.04;100.00
62025;BME280;47978;49.118;12.146;2024-03-02T06:53:10;96487.41;;;5.95;100.00
62025;BME280;47978;49.118;12.146;2024-03-02T06:57:13;96485.06;;;6.02;100.00
62025;BME280;47978;49.118;12.146;2024-03-02T07:01:14;96495.00;;;6.45;100.00
62025;BME280;47978;49.118;12.146;2024-03-02T07:05:16;96492.44;;;6.21;100.00
62025;BME280;47978;49.118;12.146;2024-03-02T07:09:18;96496.59;;;6.18;100.00
62025;BME280;47978;49.118;12.146;2024-03-02T07:13:21;96494.78;;;6.27;100.00
62025;BME280;47978;49.118;12.146;2024-03-02T07:17:22;96503.06;;;6.08;100.00
62025;BME280;47978;49.118;12.146;2024-03-02T07:21:24;96498.91;;;6.11;100.00
62025;BME280;47978;49.118;12.146;2024-03-02T07:25:26;96503.06;;;6.08;100.00
62025;BME280;47978;49.118;12.146;2024-03-02T07:29:32;96509.94;;;6.25;100.00
62025;BME280;47978;49.118;12.146;2024-03-02T07:33:33;96511.84;;;6.11;100.00
62025;BME280;47978;49.118;12.146;2024-03-02T07:37:35;96520.94;;;6.39;100.00
62025;BME280;47978;49.118;12.146;2024-03-02T07:41:37;96515.13;;;6.54;100.00
62025;BME280;47978;49.118;12.146;2024-03-02T07:45:40;96523.59;;;6.58;100.00
62025;BME280;47978;49.118;12.146;2024-03-02T07:49:42;96517.19;;;7.04;100.00
62025;BME280;47978;49.118;12.146;2024-03-02T07:53:43;96527.84;;;7.05;100.00
62025;BME280;47978;49.118;12.146;2024-03-02T07:57:48;96535.69;;;6.70;100.00
62025;BME280;47978;49.118;12.146;2024-03-02T08:01:51;96536.94;;;6.78;100.00
62025;BME280;47978;49.118;12.146;2024-03-02T08:05:53;96537.56;;;6.75;100.00
62025;BME280;47978;49.118;12.146;2024-03-02T08:09:54;96550.56;;;6.83;100.00
62025;BME280;47978;49.118;12.146;2024-03-02T08:13:56;96553.16;;;7.43;100.00
62025;BME280;47978;49.118;12.146;2024-03-02T08:17:59;96556.47;;;7.04;100.00
62025;BME280;47978;49.118;12.146;2024-03-02T08:22:01;96549.81;;;7.19;100.00
62025;BME280;47978;49.118;12.146;2024-03-02T08:26:03;96550.88;;;7.09;100.00
62025;BME280;47978;49.118;12.146;2024-03-02T08:30:06;96554.13;;;7.61;100.00
62025;BME280;47978;49.118;12.146;2024-03-02T08:34:09;96556.75;;;7.66;100.00
62025;BME280;47978;49.118;12.146;2024-03-02T08:38:11;96560.53;;;7.57;100.00
62025;BME280;47978;49.118;12.146;2024-03-02T08:42:13;96561.47;;;7.66;100.00
62025;BME280;47978;49.118;12.146;2024-03-02T08:46:15;96550.72;;;8.01;100.00
62025;BME280;47978;49.118;12.146;2024-03-02T08:50:18;96559.13;;;7.46;100.00
62025;BME280;47978;49.118;12.146;2024-03-02T08:54:19;96564.47;;;7.78;100.00
62025;BME280;47978;49.118;12.146;2024-03-02T08:58:21;96562.72;;;8.05;100.00
62025;BME280;47978;49.118;12.146;2024-03-02T09:02:23;96561.59;;;7.47;100.00
62025;BME280;47978;49.118;12.146;2024-03-02T09:06:26;96568.88;;;7.65;100.00
62025;BME280;47978;49.118;12.146;2024-03-02T09:10:27;96578.50;;;7.54;100.00
62025;BME280;47978;49.118;12.146;2024-03-02T09:14:29;96567.91;;;7.48;100.00
62025;BME280;47978;49.118;12.146;2024-03-02T09:18:31;96567.91;;;7.48;100.00
62025;BME280;47978;49.118;12.146;2024-03-02T09:22:34;96576.72;;;7.72;100.00
62025;BME280;47978;49.118;12.146;2024-03-02T09:26:35;96568.97;;;8.19;100.00
62025;BME280;47978;49.118;12.146;2024-03-02T09:30:37;96569.72;;;8.11;100.00
62025;BME280;47978;49.118;12.146;2024-03-02T09:34:39;96567.97;;;7.93;100.00
62025;BME280;47978;49.118;12.146;2024-03-02T09:38:41;96572.38;;;8.39;100.00
62025;BME280;47978;49.118;12.146;2024-03-02T09:42:45;96574.38;;;8.47;100.00
62025;BME280;47978;49.118;12.146;2024-03-02T09:46:48;96572.50;;;7.88;100.00
62025;BME280;47978;49.118;12.146;2024-03-02T09:50:50;96566.91;;;8.47;100.00
62025;BME280;47978;49.118;12.146;2024-03-02T09:54:53;96573.19;;;8.39;100.00
62025;BME280;47978;49.118;12.146;2024-03-02T09:58:55;96563.94;;;8.66;100.00
62025;BME280;47978;49.118;12.146;2024-03-02T10:02:56;96563.56;;;8.59;100.00
62025;BME280;47978;49.118;12.146;2024-03-02T10:07:12;96562.72;;;8.50;100.00
62025;BME280;47978;49.118;12.146;2024-03-02T10:11:25;96569.69;;;8.78;100.00
62025;BME280;47978;49.118;12.146;2024-03-02T10:15:27;96565.44;;;9.12;100.00
62025;BME280;47978;49.118;12.146;2024-03-02T10:19:29;96558.59;;;9.01;99.13
62025;BME280;47978;49.118;12.146;2024-03-02T10:23:31;96553.66;;;8.81;100.00
62025;BME280;47978;49.118;12.146;2024-03-02T10:27:34;96552.56;;;8.99;98.93
62025;BME280;47978;49.118;12.146;2024-03-02T10:31:36;96548.59;;;9.22;98.01
62025;BME280;47978;49.118;12.146;2024-03-02T10:35:38;96548.03;;;9.86;94.33
62025;BME280;47978;49.118;12.146;2024-03-02T10:39:40;96542.28;;;9.31;94.47
62025;BME280;47978;49.118;12.146;2024-03-02T10:43:44;96545.16;;;9.08;93.47
62025;BME280;47978;49.118;12.146;2024-03-02T10:47:48;96542.63;;;9.38;94.50
62025;BME280;47978;49.118;12.146;2024-03-02T10:51:50;96532.38;;;9.38;95.41
62025;BME280;47978;49.118;12.146;2024-03-02T10:55:57;96536.09;;;9.16;92.73
62025;BME280;47978;49.118;12.146;2024-03-02T11:00:04;96522.72;;;8.92;94.33
62025;BME280;47978;49.118;12.146;2024-03-02T11:04:08;96526.81;;;9.04;94.20
62025;BME280;47978;49.118;12.146;2024-03-02T11:08:12;96518.50;;;8.95;94.50
62025;BME280;47978;49.118;12.146;2024-03-02T11:12:19;96513.63;;;8.92;94.14
62025;BME280;47978;49.118;12.146;2024-03-02T11:16:32;96512.25;;;9.29;92.87
62025;BME280;47978;49.118;12.146;2024-03-02T11:20:36;96507.69;;;9.24;92.43
62025;BME280;47978;49.118;12.146;2024-03-02T11:24:39;96510.81;;;8.74;94.62
62025;BME280;47978;49.118;12.146;2024-03-02T11:28:48;96508.13;;;8.92;94.88
62025;BME280;47978;49.118;12.146;2024-03-02T11:32:56;96495.31;;;8.56;94.74
62025;BME280;47978;49.118;12.146;2024-03-02T11:36:57;96491.78;;;9.21;92.87
62025;BME280;47978;49.118;12.146;2024-03-02T11:41:01;96480.47;;;9.32;92.65
62025;BME280;47978;49.118;12.146;2024-03-02T11:45:02;96483.19;;;9.14;90.70
62025;BME280;47978;49.118;12.146;2024-03-02T11:49:05;96466.75;;;8.92;92.74
62025;BME280;47978;49.118;12.146;2024-03-02T11:53:07;96467.81;;;8.65;94.21
62025;BME280;47978;49.118;12.146;2024-03-02T11:57:09;96468.63;;;9.49;92.54
62025;BME280;47978;49.118;12.146;2024-03-02T12:01:11;96460.31;;;9.83;89.56
62025;BME280;47978;49.118;12.146;2024-03-02T12:05:14;96461.63;;;9.25;92.43
62025;BME280;47978;49.118;12.146;2024-03-02T12:09:16;96454.16;;;9.26;92.31
62025;BME280;47978;49.118;12.146;2024-03-02T12:13:17;96448.16;;;9.23;91.76
62025;BME280;47978;49.118;12.146;2024-03-02T12:17:19;96451.53;;;9.81;90.41
62025;BME280;47978;49.118;12.146;2024-03-02T12:21:21;96443.94;;;9.52;91.11
62025;BME280;47978;49.118;12.146;2024-03-02T12:25:23;96440.03;;;9.36;89.56
62025;BME280;47978;49.118;12.146;2024-03-02T12:29:25;96433.88;;;9.65;88.59
62025;BME280;47978;49.118;12.146;2024-03-02T12:33:27;96434.50;;;9.53;87.20
62025;BME280;47978;49.118;12.146;2024-03-02T12:37:30;96420.72;;;9.53;89.29
62025;BME280;47978;49.118;12.146;2024-03-02T12:41:31;96415.50;;;9.86;86.80
62025;BME280;47978;49.118;12.146;2024-03-02T12:45:33;96414.50;;;10.00;87.55
62025;BME280;47978;49.118;12.146;2024-03-02T12:49:35;96399.97;;;10.29;85.93
62025;BME280;47978;49.118;12.146;2024-03-02T12:53:37;96389.53;;;10.64;84.42
62025;BME280;47978;49.118;12.146;2024-03-02T12:57:39;96388.22;;;10.70;84.42
62025;BME280;47978;49.118;12.146;2024-03-02T13:01:49;96386.78;;;10.34;85.74
62025;BME280;47978;49.118;12.146;2024-03-02T13:05:51;96379.72;;;9.99;87.30
62025;BME280;47978;49.118;12.146;2024-03-02T13:09:54;96376.25;;;9.63;88.72
62025;BME280;47978;49.118;12.146;2024-03-02T13:13:56;96379.00;;;10.28;85.35
62025;BME280;47978;49.118;12.146;2024-03-02T13:17:58;96367.28;;;9.75;88.43
62025;BME280;47978;49.118;12.146;2024-03-02T13:21:59;96362.63;;;10.14;86.79
62025;BME280;47978;49.118;12.146;2024-03-02T13:26:02;96360.78;;;10.27;85.90
62025;BME280;47978;49.118;12.146;2024-03-02T13:30:05;96356.53;;;10.68;85.50
62025;BME280;47978;49.118;12.146;2024-03-02T13:34:06;96348.38;;;10.71;83.48
62025;BME280;47978;49.118;12.146;2024-03-02T13:38:08;96349.00;;;10.47;85.40
62025;BME280;47978;49.118;12.146;2024-03-02T13:42:11;96349.31;;;10.07;87.14
62025;BME280;47978;49.118;12.146;2024-03-02T13:46:13;96354.28;;;9.76;88.93
62025;BME280;47978;49.118;12.146;2024-03-02T13:50:14;96354.69;;;9.48;90.17
62025;BME280;47978;49.118;12.146;2024-03-02T13:54:16;96354.53;;;10.00;88.36
62025;BME280;47978;49.118;12.146;2024-03-02T13:58:19;96345.59;;;10.03;86.93
62025;BME280;47978;49.118;12.146;2024-03-02T14:02:20;96345.75;;;10.45;85.69
62025;BME280;47978;49.118;12.146;2024-03-02T14:06:22;96337.56;;;10.78;84.14
62025;BME280;47978;49.118;12.146;2024-03-02T14:10:23;96329.41;;;11.03;83.69
62025;BME280;47978;49.118;12.146;2024-03-02T14:14:26;96321.34;;;11.19;81.65
62025;BME280;47978;49.118;12.146;2024-03-02T14:18:27;96315.25;;;11.05;82.50
62025;BME280;47978;49.118;12.146;2024-03-02T14:22:29;96320.47;;;10.55;84.79
62025;BME280;47978;49.118;12.146;2024-03-02T14:26:30;96311.19;;;10.39;86.44
62025;BME280;47978;49.118;12.146;2024-03-02T14:30:33;96324.47;;;10.67;85.75
62025;BME280;47978;49.118;12.146;2024-03-02T14:34:35;96318.38;;;10.23;86.50
62025;BME280;47978;49.118;12.146;2024-03-02T14:38:38;96300.81;;;10.27;86.63
62025;BME280;47978;49.118;12.146;2024-03-02T14:42:40;96299.97;;;10.35;86.80
62025;BME280;47978;49.118;12.146;2024-03-02T14:46:43;96305.22;;;10.28;86.74
62025;BME280;47978;49.118;12.146;2024-03-02T14:50:45;96294.00;;;10.75;84.47
62025;BME280;47978;49.118;12.146;2024-03-02T14:54:47;96297.09;;;10.53;85.26
62025;BME280;47978;49.118;12.146;2024-03-02T14:58:48;96296.50;;;10.68;84.45
62025;BME280;47978;49.118;12.146;2024-03-02T15:02:51;96289.59;;;10.24;85.96
62025;BME280;47978;49.118;12.146;2024-03-02T15:06:53;96284.84;;;10.03;87.63
62025;BME280;47978;49.118;12.146;2024-03-02T15:10:54;96287.25;;;10.43;85.49
62025;BME280;47978;49.118;12.146;2024-03-02T15:14:56;96282.56;;;10.35;86.30
62025;BME280;47978;49.118;12.146;2024-03-02T15:18:59;96281.16;;;10.20;87.33
62025;BME280;47978;49.118;12.146;2024-03-02T15:23:00;96272.59;;;10.13;87.78
62025;BME280;47978;49.118;12.146;2024-03-02T15:27:02;96271.38;;;10.02;88.47
62025;BME280;47978;49.118;12.146;2024-03-02T15:31:04;96266.38;;;10.25;88.54
62025;BME280;47978;49.118;12.146;2024-03-02T15:35:07;96266.38;;;10.25;88.51
62025;BME280;47978;49.118;12.146;2024-03-02T15:39:08;96252.16;;;10.65;87.48
62025;BME280;47978;49.118;12.146;2024-03-02T15:43:10;96253.03;;;10.27;89.15
62025;BME280;47978;49.118;12.146;2024-03-02T15:47:11;96259.44;;;10.10;90.07
62025;BME280;47978;49.118;12.146;2024-03-02T15:51:14;96252.56;;;10.25;90.10
62025;BME280;47978;49.118;12.146;2024-03-02T15:55:16;96247.88;;;9.87;91.37
62025;BME280;47978;49.118;12.146;2024-03-02T15:59:18;96252.97;;;10.06;92.14
62025;BME280;47978;49.118;12.146;2024-03-02T16:03:19;96249.75;;;9.65;94.31
62025;BME280;47978;49.118;12.146;2024-03-02T16:07:22;96250.44;;;9.62;94.94
62025;BME280;47978;49.118;12.146;2024-03-02T16:11:24;96235.91;;;9.27;97.76
62025;BME280;47978;49.118;12.146;2024-03-02T16:15:25;96239.72;;;9.05;99.25
62025;BME280;47978;49.118;12.146;2024-03-02T16:19:27;96240.56;;;8.80;100.00
62025;BME280;47978;49.118;12.146;2024-03-02T16:23:35;96236.34;;;8.56;100.00
62025;BME280;47978;49.118;12.146;2024-03-02T16:27:36;96242.13;;;8.28;100.00
62025;BME280;47978;49.118;12.146;2024-03-02T16:31:38;96245.66;;;8.03;100.00
62025;BME280;47978;49.118;12.146;2024-03-02T16:35:39;96240.25;;;7.80;100.00
62025;BME280;47978;49.118;12.146;2024-03-02T16:39:42;96245.03;;;7.57;100.00
62025;BME280;47978;49.118;12.146;2024-03-02T16:43:43;96246.88;;;7.39;100.00
62025;BME280;47978;49.118;12.146;2024-03-02T16:47:45;96245.75;;;7.09;100.00
62025;BME280;47978;49.118;12.146;2024-03-02T16:51:46;96245.31;;;6.93;100.00
62025;BME280;47978;49.118;12.146;2024-03-02T16:55:49;96239.09;;;6.79;100.00
62025;BME280;47978;49.118;12.146;2024-03-02T16:59:51;96227.47;;;6.60;100.00
62025;BME280;47978;49.118;12.146;2024-03-02T17:03:52;96236.03;;;6.58;100.00
62025;BME280;47978;49.118;12.146;2024-03-02T17:07:55;96245.69;;;6.33;100.00
62025;BME280;47978;49.118;12.146;2024-03-02T17:11:57;96237.19;;;6.21;100.00
62025;BME280;47978;49.118;12.146;2024-03-02T17:15:59;96248.91;;;5.99;100.00
62025;BME280;47978;49.118;12.146;2024-03-02T17:20:00;96248.47;;;5.92;100.00
62025;BME280;47978;49.118;12.146;2024-03-02T17:24:02;96247.47;;;5.74;100.00
62025;BME280;47978;49.118;12.146;2024-03-02T17:28:23;96248.19;;;5.66;100.00
62025;BME280;47978;49.118;12.146;2024-03-02T17:32:25;96258.44;;;5.60;100.00
62025;BME280;47978;49.118;12.146;2024-03-02T17:36:26;96256.81;;;5.59;100.00
62025;BME280;47978;49.118;12.146;2024-03-02T17:40:28;96253.75;;;5.60;100.00
62025;BME280;47978;49.118;12.146;2024-03-02T17:44:31;96255.50;;;5.56;100.00
62025;BME280;47978;49.118;12.146;2024-03-02T17:48:32;96252.47;;;5.44;100.00
62025;BME280;47978;49.118;12.146;2024-03-02T17:52:34;96253.56;;;5.43;100.00
62025;BME280;47978;49.118;12.146;2024-03-02T17:56:35;96250.53;;;5.45;100.00
62025;BME280;47978;49.118;12.146;2024-03-02T18:00:38;96252.03;;;5.51;100.00
62025;BME280;47978;49.118;12.146;2024-03-02T18:04:39;96245.34;;;5.57;100.00
62025;BME280;47978;49.118;12.146;2024-03-02T18:08:41;96240.88;;;5.47;100.00
62025;BME280;47978;49.118;12.146;2024-03-02T18:12:42;96241.25;;;5.40;100.00
62025;BME280;47978;49.118;12.146;2024-03-02T18:16:45;96230.91;;;5.65;100.00
62025;BME280;47978;49.118;12.146;2024-03-02T18:20:46;96223.69;;;5.69;100.00
62025;BME280;47978;49.118;12.146;2024-03-02T18:24:48;96215.69;;;5.73;100.00
62025;BME280;47978;49.118;12.146;2024-03-02T18:28:50;96213.03;;;5.68;100.00
62025;BME280;47978;49.118;12.146;2024-03-02T18:32:53;96210.91;;;5.78;100.00
62025;BME280;47978;49.118;12.146;2024-03-02T18:36:54;96209.69;;;5.57;100.00
62025;BME280;47978;49.118;12.146;2024-03-02T18:40:58;96206.13;;;5.70;100.00
62025;BME280;47978;49.118;12.146;2024-03-02T18:45:00;96201.47;;;5.57;100.00
62025;BME280;47978;49.118;12.146;2024-03-02T18:49:03;96196.16;;;5.88;100.00
62025;BME280;47978;49.118;12.146;2024-03-02T18:53:05;96194.66;;;5.96;100.00
62025;BME280;47978;49.118;12.146;2024-03-02T18:57:08;96192.34;;;6.12;100.00
62025;BME280;47978;49.118;12.146;2024-03-02T19:01:09;96197.75;;;6.03;100.00
62025;BME280;47978;49.118;12.146;2024-03-02T19:05:12;96189.78;;;5.79;100.00
62025;BME280;47978;49.118;12.146;2024-03-02T19:09:14;96194.63;;;5.82;100.00
62025;BME280;47978;49.118;12.146;2024-03-02T19:13:15;96189.66;;;5.84;100.00
62025;BME280;47978;49.118;12.146;2024-03-02T19:17:17;96197.69;;;5.80;100.00
62025;BME280;47978;49.118;12.146;2024-03-02T19:21:20;96189.06;;;5.73;100.00
62025;BME280;47978;49.118;12.146;2024-03-02T19:25:21;96193.34;;;5.52;100.00
62025;BME280;47978;49.118;12.146;2024-03-02T19:29:23;96191.72;;;5.51;100.00
62025;BME280;47978;49.118;12.146;2024-03-02T19:33:24;96192.75;;;5.41;100.00
62025;BME280;47978;49.118;12.146;2024-03-02T19:37:27;96190.50;;;5.29;100.00
62025;BME280;47978;49.118;12.146;2024-03-02T19:41:28;96187.66;;;5.21;100.00
62025;BME280;47978;49.118;12.146;2024-03-02T19:45:30;96183.59;;;5.32;100.00
62025;BME280;47978;49.118;12.146;2024-03-02T19:49:31;96182.50;;;5.19;100.00
62025;BME280;47978;49.118;12.146;2024-03-02T19:53:35;96176.94;;;5.24;100.00
62025;BME280;47978;49.118;12.146;2024-03-02T19:57:36;96173.34;;;4.96;100.00
62025;BME280;47978;49.118;12.146;2024-03-02T20:01:38;96179.81;;;4.72;100.00
62025;BME280;47978;49.118;12.146;2024-03-02T20:05:39;96170.88;;;4.81;100.00
62025;BME280;47978;49.118;12.146;2024-03-02T20:09:42;96177.00;;;5.05;100.00
62025;BME280;47978;49.118;12.146;2024-03-02T20:13:44;96180.13;;;4.52;100.00
62025;BME280;47978;49.118;12.146;2024-03-02T20:17:46;96179.72;;;4.45;100.00
62025;BME280;47978;49.118;12.146;2024-03-02T20:21:48;96182.06;;;4.51;100.00
62025;BME280;47978;49.118;12.146;2024-03-02T20:25:51;96184.06;;;4.46;100.00
62025;BME280;47978;49.118;12.146;2024-03-02T20:29:52;96196.56;;;4.19;100.00
62025;BME280;47978;49.118;12.146;2024-03-02T20:33:54;96201.34;;;3.90;100.00
62025;BME280;47978;49.118;12.146;2024-03-02T20:37:55;96185.75;;;3.71;100.00
62025;BME280;47978;49.118;12.146;2024-03-02T20:41:58;96175.78;;;3.62;100.00
62025;BME280;47978;49.118;12.146;2024-03-02T20:45:59;96177.72;;;3.80;100.00
62025;BME280;47978;49.118;12.146;2024-03-02T20:50:01;96160.84;;;3.54;100.00
62025;BME280;47978;49.118;12.146;2024-03-02T20:54:03;96171.72;;;3.59;100.00
62025;BME280;47978;49.118;12.146;2024-03-02T20:58:05;96174.88;;;3.47;100.00
62025;BME280;47978;49.118;12.146;2024-03-02T21:02:07;96175.66;;;3.29;100.00
62025;BME280;47978;49.118;12.146;2024-03-02T21:06:09;96175.38;;;3.30;100.00